Time;durP1;ratioP1;P1;durP2;ratioP2;P2;SDS_P1;SDS_P2;PMS_P1;PMS_P2;Temp;Humidity;BMP_temperature;BMP_pressure;BME280_temperature;BME280_humidity;BME280_pressure;Samples;Min_cycle;Max_cycle;Signal;HPM_P1;HPM_P2
2024/01/30 00:01:16;;;;;;;36.60;23.75;;;5.70;99.90;;;;;;5063087;28;20492;-71
2024/01/30 00:03:42;;;;;;;32.72;22.70;;;5.60;99.90;;;;;;5059889;28;20047;-71
2024/01/30 00:06:08;;;;;;;39.10;23.52;;;5.60;99.90;;;;;;5062308;28;20056;-71
2024/01/30 00:08:34;;;;;;;34.83;22.98;;;5.60;99.90;;;;;;5064187;28;20605;-71
2024/01/30 00:11:00;;;;;;;37.33;23.20;;;5.60;99.90;;;;;;5065161;28;20044;-71
2024/01/30 00:13:26;;;;;;;33.95;22.63;;;5.60;99.90;;;;;;5061133;28;20051;-71
2024/01/30 00:15:52;;;;;;;41.72;22.83;;;5.60;99.90;;;;;;5063170;28;20049;-71
2024/01/30 00:18:18;;;;;;;36.50;22.45;;;5.60;99.90;;;;;;5063778;28;20047;-72
2024/01/30 00:20:44;;;;;;;40.60;23.15;;;5.60;99.90;;;;;;5060948;28;20111;-71
2024/01/30 00:23:09;;;;;;;38.90;24.15;;;5.50;99.90;;;;;;5064610;28;20165;-71
2024/01/30 00:25:35;;;;;;;39.97;24.42;;;5.50;99.90;;;;;;5061373;28;20438;-71
2024/01/30 00:28:01;;;;;;;34.92;23.17;;;5.50;99.90;;;;;;5074917;28;20067;-71
2024/01/30 00:30:27;;;;;;;36.50;23.00;;;5.50;99.90;;;;;;5059453;28;20044;-71
2024/01/30 00:32:53;;;;;;;38.13;24.85;;;5.40;99.90;;;;;;5060397;28;20052;-71
2024/01/30 00:35:19;;;;;;;39.47;23.10;;;5.40;99.90;;;;;;5060090;28;20174;-71
2024/01/30 00:37:44;;;;;;;36.55;22.90;;;5.30;99.90;;;;;;5062249;28;20123;-71
2024/01/30 00:40:15;;;;;;;40.20;24.45;;;5.30;99.90;;;;;;5074360;28;20040;-71
2024/01/30 00:42:41;;;;;;;40.10;24.23;;;5.30;99.90;;;;;;5063044;28;20049;-71
2024/01/30 00:45:13;;;;;;;37.15;23.67;;;5.30;99.90;;;;;;5074766;28;20044;-71
2024/01/30 00:47:38;;;;;;;39.92;24.83;;;5.30;99.90;;;;;;5060409;28;20051;-72
2024/01/30 00:50:05;;;;;;;41.50;25.65;;;5.30;99.90;;;;;;5062339;28;20032;-71
2024/01/30 00:52:30;;;;;;;38.53;25.10;;;5.30;99.90;;;;;;5061755;28;20049;-71
2024/01/30 00:54:56;;;;;;;37.58;23.25;;;5.30;99.90;;;;;;5060554;28;20059;-71
2024/01/30 00:57:21;;;;;;;40.63;24.33;;;5.30;99.90;;;;;;5074250;28;20189;-71
2024/01/30 00:59:47;;;;;;;42.55;26.40;;;5.30;99.90;;;;;;5060401;28;20059;-71
2024/01/30 01:02:15;;;;;;;40.83;25.90;;;5.30;99.90;;;;;;5059527;28;20056;-71
2024/01/30 01:04:40;;;;;;;41.35;24.92;;;5.30;99.90;;;;;;5056333;28;20481;-71
2024/01/30 01:07:06;;;;;;;41.70;24.67;;;5.30;99.90;;;;;;5063378;28;20051;-71
2024/01/30 01:09:31;;;;;;;43.60;24.13;;;5.30;99.90;;;;;;5061396;28;20056;-71
2024/01/30 01:11:57;;;;;;;39.85;23.95;;;5.20;99.90;;;;;;5062723;28;20040;-71
2024/01/30 01:14:23;;;;;;;41.42;25.15;;;5.20;99.90;;;;;;5059371;28;20060;-71
2024/01/30 01:16:48;;;;;;;37.65;24.50;;;5.20;99.90;;;;;;5060664;28;20147;-71
2024/01/30 01:19:14;;;;;;;35.67;23.58;;;5.20;99.90;;;;;;5058649;28;21592;-71
2024/01/30 01:21:40;;;;;;;41.47;26.60;;;5.20;99.90;;;;;;5063591;28;20063;-71
2024/01/30 01:24:05;;;;;;;40.30;25.42;;;5.20;99.90;;;;;;5061738;28;20119;-71
2024/01/30 01:26:31;;;;;;;43.83;25.30;;;5.30;99.90;;;;;;5058467;28;20044;-71
2024/01/30 01:28:57;;;;;;;42.03;26.10;;;5.30;99.90;;;;;;5061436;28;20066;-72
2024/01/30 01:31:24;;;;;;;40.92;25.65;;;5.40;99.90;;;;;;5058310;28;20072;-72
2024/01/30 01:33:50;;;;;;;42.67;26.35;;;5.40;99.90;;;;;;5059669;28;20190;-71
2024/01/30 01:36:16;;;;;;;42.42;24.85;;;5.50;99.90;;;;;;5059653;28;20810;-71
2024/01/30 01:38:41;;;;;;;40.72;25.35;;;5.50;99.90;;;;;;5061664;28;20076;-71
2024/01/30 01:41:07;;;;;;;46.08;26.63;;;5.50;99.90;;;;;;5063107;28;20068;-71
2024/01/30 01:43:33;;;;;;;41.83;26.27;;;5.50;99.90;;;;;;5062347;28;20472;-71
2024/01/30 01:45:59;;;;;;;44.83;26.90;;;5.60;99.90;;;;;;5061583;28;20054;-71
2024/01/30 01:48:25;;;;;;;38.72;26.00;;;5.60;99.90;;;;;;5060708;28;20044;-71
2024/01/30 01:50:52;;;;;;;42.55;25.95;;;5.60;99.90;;;;;;5060234;28;20673;-71
2024/01/30 01:53:18;;;;;;;37.90;24.63;;;5.60;99.90;;;;;;5055668;28;20098;-71
2024/01/30 01:55:43;;;;;;;41.95;25.23;;;5.60;99.90;;;;;;5060373;28;20053;-71
2024/01/30 01:58:10;;;;;;;42.20;26.77;;;5.60;99.90;;;;;;5060077;28;20648;-71
2024/01/30 02:00:39;;;;;;;38.72;25.23;;;5.60;99.90;;;;;;5056241;28;20068;-71
2024/01/30 02:03:06;;;;;;;45.85;26.60;;;5.60;99.90;;;;;;5074660;28;20062;-71
2024/01/30 02:05:32;;;;;;;43.95;26.50;;;5.70;99.90;;;;;;5060869;28;20156;-71
2024/01/30 02:07:58;;;;;;;43.30;26.65;;;5.70;99.90;;;;;;5061552;28;20139;-71
2024/01/30 02:10:24;;;;;;;41.30;26.58;;;5.70;99.90;;;;;;5061909;28;20119;-71
2024/01/30 02:12:50;;;;;;;40.25;25.45;;;5.70;99.90;;;;;;5060316;28;20123;-71
2024/01/30 02:15:15;;;;;;;41.53;26.63;;;5.80;99.90;;;;;;5060774;28;20068;-71
2024/01/30 02:17:41;;;;;;;44.67;26.27;;;5.80;99.90;;;;;;5062723;28;20135;-71
2024/01/30 02:20:07;;;;;;;43.40;25.83;;;5.80;99.90;;;;;;5052244;28;20067;-71
2024/01/30 02:22:35;;;;;;;38.60;23.30;;;5.80;99.90;;;;;;5061088;28;20048;-71
2024/01/30 02:25:00;;;;;;;37.63;25.08;;;5.80;99.90;;;;;;5072689;28;20389;-71
2024/01/30 02:27:26;;;;;;;37.97;24.27;;;5.80;99.90;;;;;;5058862;28;20052;-71
2024/01/30 02:29:52;;;;;;;45.47;27.17;;;5.90;99.90;;;;;;5071762;28;20056;-71
2024/01/30 02:32:17;;;;;;;43.78;27.60;;;5.90;99.90;;;;;;5064708;28;20047;-71
2024/01/30 02:34:43;;;;;;;40.90;26.45;;;5.90;99.90;;;;;;5060239;28;20123;-71
2024/01/30 02:37:09;;;;;;;42.03;25.13;;;5.90;99.90;;;;;;5061068;28;20083;-71
2024/01/30 02:39:34;;;;;;;38.13;25.35;;;5.90;99.90;;;;;;5060775;28;20052;-71
2024/01/30 02:42:00;;;;;;;40.22;25.58;;;5.90;99.90;;;;;;5058929;28;20040;-71
2024/01/30 02:44:26;;;;;;;40.35;24.63;;;5.90;99.90;;;;;;5061210;28;20068;-71
2024/01/30 02:46:54;;;;;;;42.33;24.88;;;6.00;99.90;;;;;;5063722;28;20197;-71
2024/01/30 02:49:19;;;;;;;44.72;26.35;;;6.00;99.90;;;;;;5060373;28;20048;-71
2024/01/30 02:51:45;;;;;;;43.67;25.20;;;6.00;99.90;;;;;;5062440;28;20055;-71
2024/01/30 02:54:11;;;;;;;42.28;24.48;;;6.00;99.90;;;;;;5072661;28;20044;-71
2024/01/30 02:56:36;;;;;;;38.47;23.52;;;6.00;99.90;;;;;;5062978;28;20051;-71
2024/01/30 02:59:02;;;;;;;36.33;23.80;;;6.00;99.90;;;;;;5058216;28;20060;-71
2024/01/30 03:01:28;;;;;;;44.53;24.63;;;6.10;99.90;;;;;;5065170;28;20389;-71
2024/01/30 03:03:53;;;;;;;40.75;24.17;;;6.10;99.90;;;;;;5065118;28;20536;-71
2024/01/30 03:06:20;;;;;;;36.22;24.63;;;6.10;99.90;;;;;;5061217;28;20044;-71
2024/01/30 03:08:45;;;;;;;39.28;23.25;;;6.10;99.90;;;;;;5060390;28;20052;-71
2024/01/30 03:11:11;;;;;;;40.78;24.35;;;6.00;99.90;;;;;;5066662;28;20049;-71
2024/01/30 03:13:37;;;;;;;37.08;23.50;;;6.00;99.90;;;;;;5065157;28;20048;-71
2024/01/30 03:16:02;;;;;;;40.22;23.70;;;6.00;99.90;;;;;;5062907;28;20051;-71
2024/01/30 03:18:28;;;;;;;36.85;23.35;;;6.00;99.90;;;;;;5064815;28;20048;-71
2024/01/30 03:20:54;;;;;;;39.58;24.15;;;5.90;99.90;;;;;;5062431;28;20131;-71
2024/01/30 03:23:19;;;;;;;36.17;23.45;;;5.90;99.90;;;;;;5062535;28;20047;-71
2024/01/30 03:25:45;;;;;;;41.20;23.77;;;5.80;99.90;;;;;;5060603;28;20113;-71
2024/01/30 03:28:11;;;;;;;39.92;23.45;;;5.80;99.90;;;;;;5062653;28;20078;-71
2024/01/30 03:30:36;;;;;;;40.88;23.02;;;5.80;99.90;;;;;;5062937;28;20056;-71
2024/01/30 03:33:02;;;;;;;38.72;23.15;;;5.80;99.90;;;;;;5064066;28;20048;-71
2024/01/30 03:35:28;;;;;;;37.85;23.88;;;5.80;99.90;;;;;;5061054;28;20041;-71
2024/01/30 03:37:53;;;;;;;39.03;23.15;;;5.80;99.90;;;;;;5061987;28;20162;-71
2024/01/30 03:40:19;;;;;;;36.30;23.15;;;5.80;99.90;;;;;;5075915;28;20051;-71
2024/01/30 03:42:45;;;;;;;35.47;22.15;;;5.80;99.90;;;;;;5062774;28;20048;-71
2024/01/30 03:45:11;;;;;;;33.63;21.35;;;5.80;99.90;;;;;;5061281;28;20742;-71
2024/01/30 03:47:36;;;;;;;37.42;23.30;;;5.80;99.90;;;;;;5061086;28;20040;-71
2024/01/30 03:50:04;;;;;;;39.53;23.25;;;5.80;99.90;;;;;;5060215;28;20036;-71
2024/01/30 03:52:30;;;;;;;41.22;22.35;;;5.90;99.90;;;;;;5059858;28;20056;-71
2024/01/30 03:54:56;;;;;;;39.95;24.55;;;5.90;99.90;;;;;;5062574;28;20051;-71
2024/01/30 03:57:21;;;;;;;35.47;22.58;;;6.00;99.90;;;;;;5063531;28;22073;-71
2024/01/30 03:59:47;;;;;;;37.45;22.58;;;6.00;99.90;;;;;;5056121;28;20041;-71
2024/01/30 04:02:13;;;;;;;37.83;22.80;;;6.00;99.90;;;;;;5071562;28;20052;-71
2024/01/30 04:04:39;;;;;;;37.35;22.98;;;6.00;99.90;;;;;;5062359;28;20036;-71
2024/01/30 04:07:04;;;;;;;32.22;21.70;;;6.00;99.90;;;;;;5062664;28;20072;-71
2024/01/30 04:09:30;;;;;;;37.58;21.77;;;6.10;99.90;;;;;;5058380;28;20140;-71
2024/01/30 04:11:56;;;;;;;33.88;22.52;;;6.10;99.90;;;;;;5058470;28;20174;-71
2024/01/30 04:14:21;;;;;;;32.85;21.63;;;6.10;99.90;;;;;;5061269;28;20063;-71
2024/01/30 04:16:47;;;;;;;34.65;20.73;;;6.20;99.90;;;;;;5062324;28;20040;-71
2024/01/30 04:19:12;;;;;;;38.97;22.55;;;6.20;99.90;;;;;;5061747;28;20044;-71
2024/01/30 04:21:38;;;;;;;37.60;22.10;;;6.20;99.90;;;;;;5065232;28;20033;-71
2024/01/30 04:24:04;;;;;;;33.28;21.58;;;6.20;99.90;;;;;;5059179;28;20121;-71
2024/01/30 04:26:30;;;;;;;36.28;21.35;;;6.20;99.90;;;;;;5076466;28;20197;-71
2024/01/30 04:28:55;;;;;;;36.15;22.55;;;6.20;99.90;;;;;;5061318;28;20075;-71
2024/01/30 04:31:21;;;;;;;31.75;19.77;;;6.20;99.90;;;;;;5062303;28;20050;-71
2024/01/30 04:33:47;;;;;;;33.22;21.33;;;6.30;99.90;;;;;;5061450;28;20119;-71
2024/01/30 04:36:12;;;;;;;32.92;20.83;;;6.20;99.90;;;;;;5062269;28;20064;-71
2024/01/30 04:38:39;;;;;;;31.83;20.35;;;6.30;99.90;;;;;;5058664;28;20051;-71
2024/01/30 04:41:05;;;;;;;36.85;21.25;;;6.20;99.90;;;;;;5064293;28;20051;-71
2024/01/30 04:43:30;;;;;;;32.25;19.50;;;6.30;99.90;;;;;;5060371;28;20564;-71
2024/01/30 04:45:56;;;;;;;33.25;20.65;;;6.30;99.90;;;;;;5061626;28;20044;-71
2024/01/30 04:48:22;;;;;;;35.10;20.13;;;6.30;99.90;;;;;;5062785;28;20040;-71
2024/01/30 04:50:47;;;;;;;31.80;21.20;;;6.30;99.90;;;;;;5061160;28;20036;-71
2024/01/30 04:53:13;;;;;;;31.58;19.75;;;6.30;99.90;;;;;;5056525;28;20114;-71
2024/01/30 04:55:39;;;;;;;36.33;20.83;;;6.30;99.90;;;;;;5056224;28;21434;-71
2024/01/30 04:58:04;;;;;;;34.83;18.83;;;6.30;99.90;;;;;;5080237;28;20505;-71
2024/01/30 05:00:30;;;;;;;33.90;19.58;;;6.30;99.90;;;;;;5054520;28;20678;-71
2024/01/30 05:02:56;;;;;;;30.60;19.17;;;6.40;99.90;;;;;;5061694;28;20060;-71
2024/01/30 05:05:21;;;;;;;28.60;18.42;;;6.40;99.90;;;;;;5060909;28;20737;-71
2024/01/30 05:07:47;;;;;;;33.00;19.45;;;6.40;99.90;;;;;;5058709;28;20063;-71
2024/01/30 05:10:13;;;;;;;28.20;19.77;;;6.40;99.90;;;;;;5060739;28;20033;-71
2024/01/30 05:12:39;;;;;;;26.20;17.67;;;6.40;99.90;;;;;;5059115;28;20044;-71
2024/01/30 05:15:06;;;;;;;29.70;19.15;;;6.40;99.90;;;;;;5062796;28;20135;-71
2024/01/30 05:17:31;;;;;;;29.08;17.98;;;6.40;99.90;;;;;;5059747;28;20052;-71
2024/01/30 05:19:57;;;;;;;34.55;18.77;;;6.40;99.90;;;;;;5075317;28;20032;-71
2024/01/30 05:22:23;;;;;;;30.08;18.80;;;6.40;99.90;;;;;;5060185;28;20044;-71
2024/01/30 05:24:48;;;;;;;27.33;18.83;;;6.40;99.90;;;;;;5058216;28;20052;-71
2024/01/30 05:27:14;;;;;;;27.77;18.88;;;6.40;99.90;;;;;;5060052;28;20095;-71
2024/01/30 05:29:41;;;;;;;27.77;17.95;;;6.40;99.90;;;;;;5062142;28;20535;-71
2024/01/30 05:32:06;;;;;;;29.05;17.00;;;6.40;99.90;;;;;;5053130;28;20064;-71
2024/01/30 05:34:32;;;;;;;31.17;18.25;;;6.40;99.90;;;;;;5058499;28;20040;-71
2024/01/30 05:36:58;;;;;;;32.85;18.67;;;6.30;99.90;;;;;;5055819;28;20041;-71
2024/01/30 05:39:24;;;;;;;31.77;18.98;;;6.40;99.90;;;;;;5057726;28;20189;-73
2024/01/30 05:41:49;;;;;;;29.33;17.40;;;6.30;99.90;;;;;;5059935;28;20056;-72
2024/01/30 05:44:15;;;;;;;27.33;18.25;;;6.40;99.90;;;;;;5055935;28;20040;-71
2024/01/30 05:46:41;;;;;;;30.02;19.08;;;6.40;99.90;;;;;;5055819;28;20040;-71
2024/01/30 05:49:07;;;;;;;30.48;18.27;;;6.40;99.90;;;;;;5060139;28;20036;-71
2024/01/30 05:51:33;;;;;;;31.30;18.90;;;6.40;99.90;;;;;;5059658;28;20114;-70
2024/01/30 05:53:58;;;;;;;26.92;17.42;;;6.40;99.90;;;;;;5056407;28;20802;-71
2024/01/30 05:56:24;;;;;;;30.40;17.27;;;6.50;99.90;;;;;;5057710;28;20499;-71
2024/01/30 05:58:50;;;;;;;27.20;17.77;;;6.50;99.90;;;;;;5046865;28;20049;-71
2024/01/30 06:01:16;;;;;;;29.30;18.58;;;6.50;99.90;;;;;;5054577;28;20068;-71
2024/01/30 06:03:43;;;;;;;30.63;17.40;;;6.50;99.90;;;;;;5071336;28;20135;-71
2024/01/30 06:06:09;;;;;;;28.58;17.60;;;6.50;99.90;;;;;;5062661;28;20048;-71
2024/01/30 06:08:34;;;;;;;27.65;16.17;;;6.50;99.90;;;;;;5061863;28;20036;-71
2024/01/30 06:11:00;;;;;;;25.58;17.52;;;6.60;99.90;;;;;;5066569;28;20606;-69
2024/01/30 06:13:26;;;;;;;31.30;17.75;;;6.60;99.90;;;;;;5064750;28;20052;-69
2024/01/30 06:15:52;;;;;;;28.27;17.58;;;6.60;99.90;;;;;;5063358;28;20060;-68
2024/01/30 06:18:18;;;;;;;28.42;16.88;;;6.60;99.90;;;;;;5057878;28;20087;-69
2024/01/30 06:20:44;;;;;;;29.17;17.25;;;6.60;99.90;;;;;;5065780;28;20056;-69
2024/01/30 06:23:10;;;;;;;25.88;17.10;;;6.60;99.90;;;;;;5058979;28;20043;-67
2024/01/30 06:25:35;;;;;;;30.40;18.08;;;6.60;99.90;;;;;;5062403;28;20044;-70
2024/01/30 06:28:01;;;;;;;28.63;16.83;;;6.60;99.90;;;;;;5054970;28;20052;-67
2024/01/30 06:30:27;;;;;;;27.05;16.33;;;6.60;99.90;;;;;;5056693;28;20163;-69
2024/01/30 06:32:52;;;;;;;25.98;16.55;;;6.60;99.90;;;;;;5059490;28;20511;-69
2024/01/30 06:35:18;;;;;;;28.10;17.33;;;6.60;99.90;;;;;;5060628;28;20668;-71
2024/01/30 06:37:44;;;;;;;28.02;17.13;;;6.60;99.90;;;;;;5056184;28;20127;-71
2024/01/30 06:40:10;;;;;;;24.17;16.23;;;6.70;99.90;;;;;;5077045;28;20052;-71
2024/01/30 06:42:36;;;;;;;27.92;16.08;;;6.60;99.90;;;;;;5061226;28;20045;-71
2024/01/30 06:45:01;;;;;;;31.02;17.17;;;6.70;99.90;;;;;;5064499;28;20069;-71
2024/01/30 06:47:28;;;;;;;26.27;17.77;;;6.70;99.90;;;;;;5063894;28;20044;-72
2024/01/30 06:49:54;;;;;;;32.75;18.23;;;6.70;99.90;;;;;;5067392;28;20036;-71
2024/01/30 06:52:19;;;;;;;26.98;17.45;;;6.70;99.90;;;;;;5063960;28;20055;-70
2024/01/30 06:54:45;;;;;;;33.90;17.40;;;6.70;99.90;;;;;;5063618;28;20250;-73
2024/01/30 06:57:11;;;;;;;28.00;17.25;;;6.70;99.90;;;;;;5060741;28;20040;-73
2024/01/30 06:59:43;;;;;;;26.63;16.23;;;6.70;99.90;;;;;;5060975;28;20119;-72
2024/01/30 07:02:09;;;;;;;27.83;16.00;;;6.80;99.90;;;;;;5063377;28;20103;-73
2024/01/30 07:04:36;;;;;;;31.70;17.55;;;6.80;99.90;;;;;;5066581;28;20036;-73
2024/01/30 07:07:04;;;;;;;24.20;15.95;;;6.80;99.90;;;;;;5064362;28;20044;-73
2024/01/30 07:09:30;;;;;;;25.65;16.63;;;6.80;99.90;;;;;;5063348;28;20045;-73
2024/01/30 07:11:58;;;;;;;27.42;16.65;;;6.80;99.90;;;;;;5063524;28;20041;-73
2024/01/30 07:14:24;;;;;;;30.05;17.10;;;6.80;99.90;;;;;;5067521;28;20093;-72
2024/01/30 07:16:50;;;;;;;28.60;17.25;;;6.80;99.90;;;;;;5061135;28;20082;-73
2024/01/30 07:19:16;;;;;;;27.02;16.08;;;6.80;99.90;;;;;;5062907;28;20044;-73
2024/01/30 07:21:41;;;;;;;31.00;16.90;;;6.80;99.90;;;;;;5065310;28;20067;-73
2024/01/30 07:24:07;;;;;;;29.17;17.25;;;6.80;99.90;;;;;;5064541;28;20075;-73
2024/01/30 07:26:33;;;;;;;23.75;15.55;;;6.80;99.90;;;;;;5079432;28;20040;-73
2024/01/30 07:28:59;;;;;;;25.75;15.85;;;6.90;99.90;;;;;;5067681;28;20040;-73
2024/01/30 07:31:24;;;;;;;23.10;15.73;;;6.90;99.90;;;;;;5063281;28;20135;-73
2024/01/30 07:33:50;;;;;;;28.80;16.83;;;6.90;99.90;;;;;;5064597;28;20170;-73
2024/01/30 07:36:16;;;;;;;28.02;17.35;;;7.00;99.90;;;;;;5065826;28;20563;-71
2024/01/30 07:38:41;;;;;;;28.80;16.20;;;7.00;99.90;;;;;;5064359;28;20717;-71
2024/01/30 07:41:07;;;;;;;25.90;16.60;;;7.00;99.90;;;;;;5066708;28;20408;-72
2024/01/30 07:43:33;;;;;;;27.48;16.58;;;7.10;99.90;;;;;;5065359;28;20062;-71
2024/01/30 07:46:00;;;;;;;30.45;17.88;;;7.10;99.90;;;;;;5062784;28;20131;-71
2024/01/30 07:48:27;;;;;;;25.65;15.85;;;7.10;99.90;;;;;;5064302;28;20516;-71
2024/01/30 07:50:53;;;;;;;26.13;16.52;;;7.10;99.90;;;;;;5066805;28;20385;-71
2024/01/30 07:53:19;;;;;;;28.88;15.48;;;7.10;99.90;;;;;;5062455;28;20063;-71
2024/01/30 07:55:46;;;;;;;27.67;17.25;;;7.10;99.90;;;;;;5065763;28;20575;-71
2024/01/30 07:58:12;;;;;;;34.38;16.17;;;7.10;99.90;;;;;;5066582;28;20064;-71
2024/01/30 08:00:38;;;;;;;31.10;17.88;;;7.20;99.90;;;;;;5062672;28;20037;-71
2024/01/30 08:03:04;;;;;;;28.67;15.93;;;7.20;99.90;;;;;;5060799;28;20047;-71
2024/01/30 08:05:31;;;;;;;28.85;16.05;;;7.20;99.90;;;;;;5059813;28;20052;-71
2024/01/30 08:07:56;;;;;;;27.63;15.88;;;7.30;99.90;;;;;;5058431;28;20051;-70
2024/01/30 08:10:22;;;;;;;26.63;17.05;;;7.40;99.90;;;;;;5061456;28;20400;-71
2024/01/30 08:12:48;;;;;;;26.23;16.02;;;7.40;99.90;;;;;;5063645;28;20113;-71
2024/01/30 08:15:13;;;;;;;27.05;15.30;;;7.50;99.90;;;;;;5066013;28;20039;-71
2024/01/30 08:17:39;;;;;;;27.30;15.65;;;7.60;99.90;;;;;;5064796;28;20045;-71
2024/01/30 08:20:07;;;;;;;22.17;15.63;;;7.70;99.90;;;;;;5065215;28;20036;-71
2024/01/30 08:22:32;;;;;;;23.90;15.25;;;7.80;99.90;;;;;;5063513;28;20392;-71
2024/01/30 08:24:58;;;;;;;29.38;16.48;;;7.90;99.90;;;;;;5067406;28;20041;-71
2024/01/30 08:27:23;;;;;;;27.42;16.35;;;8.00;99.90;;;;;;5065012;28;20101;-72
2024/01/30 08:29:50;;;;;;;25.10;15.18;;;8.00;99.90;;;;;;5063424;28;20427;-72
2024/01/30 08:32:16;;;;;;;25.00;15.63;;;8.20;99.90;;;;;;5064340;28;20692;-72
2024/01/30 08:34:42;;;;;;;28.70;15.90;;;8.20;99.90;;;;;;5062914;28;20040;-72
2024/01/30 08:37:07;;;;;;;28.25;15.35;;;8.30;99.90;;;;;;5063550;28;20032;-72
2024/01/30 08:39:33;;;;;;;33.40;15.13;;;8.30;99.90;;;;;;5059300;28;20048;-72
2024/01/30 08:41:59;;;;;;;27.63;15.77;;;8.40;99.90;;;;;;5060904;28;20040;-72
2024/01/30 08:44:25;;;;;;;30.15;15.90;;;8.50;99.90;;;;;;5065013;28;20048;-71
2024/01/30 08:46:51;;;;;;;23.38;15.13;;;8.60;99.90;;;;;;5066824;28;20075;-72
2024/01/30 08:49:17;;;;;;;30.25;15.48;;;8.60;99.90;;;;;;5064525;28;20150;-71
2024/01/30 08:51:42;;;;;;;23.33;14.50;;;8.70;99.90;;;;;;5063549;28;20454;-72
2024/01/30 08:54:08;;;;;;;21.13;13.35;;;8.70;99.90;;;;;;5058842;28;20036;-72
2024/01/30 08:56:34;;;;;;;25.55;14.75;;;8.80;99.90;;;;;;5071984;28;20048;-72
2024/01/30 08:58:59;;;;;;;26.85;13.75;;;8.90;99.90;;;;;;5053165;28;20516;-72
2024/01/30 09:01:26;;;;;;;21.50;13.40;;;9.00;99.90;;;;;;5065503;28;20504;-72
2024/01/30 09:03:52;;;;;;;22.02;13.23;;;9.00;99.90;;;;;;5055506;28;20041;-73
2024/01/30 09:06:17;;;;;;;30.48;14.00;;;9.10;99.90;;;;;;5062873;28;20040;-72
2024/01/30 09:08:43;;;;;;;27.55;14.60;;;9.10;99.90;;;;;;5062563;28;20045;-72
2024/01/30 09:11:10;;;;;;;23.58;13.82;;;9.10;99.90;;;;;;5065405;28;20037;-72
2024/01/30 09:13:36;;;;;;;23.00;13.75;;;9.20;99.90;;;;;;5063604;28;20052;-72
2024/01/30 09:16:02;;;;;;;24.55;12.50;;;9.20;99.90;;;;;;5059193;28;20052;-72
2024/01/30 09:18:27;;;;;;;30.08;13.55;;;9.20;99.90;;;;;;5063919;28;20515;-71
2024/01/30 09:20:53;;;;;;;22.05;13.52;;;9.30;99.90;;;;;;5068647;28;20074;-72
2024/01/30 09:23:19;;;;;;;20.48;12.88;;;9.30;99.90;;;;;;5062782;28;20078;-71
2024/01/30 09:25:45;;;;;;;21.88;12.55;;;9.40;99.90;;;;;;5066471;28;20036;-72
2024/01/30 09:28:11;;;;;;;23.23;13.75;;;9.40;99.90;;;;;;5060603;28;20048;-72
2024/01/30 09:30:36;;;;;;;26.45;12.52;;;9.40;99.90;;;;;;5061960;28;20124;-72
2024/01/30 09:33:02;;;;;;;20.10;12.20;;;9.40;99.90;;;;;;5062100;28;20051;-72
2024/01/30 09:35:29;;;;;;;27.27;12.27;;;9.50;99.90;;;;;;5061004;28;20097;-72
2024/01/30 09:37:55;;;;;;;21.90;13.20;;;9.40;99.90;;;;;;5075768;28;20127;-71
2024/01/30 09:40:21;;;;;;;21.13;12.98;;;9.40;99.90;;;;;;5065273;28;20131;-71
2024/01/30 09:42:50;;;;;;;19.90;13.50;;;9.40;99.90;;;;;;5059485;28;20056;-72
2024/01/30 09:45:18;;;;;;;19.35;13.07;;;9.40;99.90;;;;;;5068421;28;20049;-71
2024/01/30 09:47:45;;;;;;;22.67;12.85;;;9.40;99.90;;;;;;5060928;28;20053;-72
2024/01/30 09:50:12;;;;;;;28.85;13.95;;;9.40;99.90;;;;;;5061271;28;20102;-72
2024/01/30 09:52:38;;;;;;;21.90;14.07;;;9.40;99.90;;;;;;5056960;28;20048;-71
2024/01/30 09:55:05;;;;;;;27.10;15.25;;;9.50;99.90;;;;;;5064424;28;20076;-71
2024/01/30 09:57:31;;;;;;;20.23;12.25;;;9.40;99.90;;;;;;5062774;28;20044;-72
2024/01/30 09:59:57;;;;;;;24.80;13.00;;;9.50;99.90;;;;;;5061893;28;20049;-71
2024/01/30 10:02:23;;;;;;;26.00;12.73;;;9.40;99.90;;;;;;5056507;28;20109;-71
2024/01/30 10:04:50;;;;;;;26.65;13.10;;;9.40;99.90;;;;;;5061742;28;20029;-80
2024/01/30 10:07:17;;;;;;;20.60;12.15;;;9.40;99.90;;;;;;5059173;28;20480;-79
2024/01/30 10:09:42;;;;;;;20.30;11.52;;;9.50;99.90;;;;;;5058951;28;20040;-79
2024/01/30 10:12:12;;;;;;;24.20;11.68;;;9.50;99.90;;;;;;5060463;28;20040;-80
2024/01/30 10:14:39;;;;;;;20.88;12.20;;;9.40;99.90;;;;;;5061687;28;20106;-79
2024/01/30 10:17:05;;;;;;;17.13;9.73;;;9.40;99.90;;;;;;5057513;28;20053;-78
2024/01/30 10:19:31;;;;;;;18.10;9.65;;;9.40;99.90;;;;;;5060034;28;20047;-79
2024/01/30 10:21:59;;;;;;;20.58;10.77;;;9.40;99.90;;;;;;5063124;28;20084;-79
2024/01/30 10:24:26;;;;;;;20.33;9.15;;;9.30;99.90;;;;;;5059027;28;20061;-79
2024/01/30 10:26:53;;;;;;;15.98;9.55;;;9.30;99.90;;;;;;5061312;28;20162;-77
2024/01/30 10:29:18;;;;;;;19.48;12.10;;;9.40;99.90;;;;;;5065288;28;20071;-82
2024/01/30 10:31:44;;;;;;;17.60;8.43;;;9.30;99.90;;;;;;5065291;28;20050;-81
2024/01/30 10:34:10;;;;;;;18.77;9.32;;;9.30;99.90;;;;;;5062168;28;20127;-79
2024/01/30 10:36:43;;;;;;;19.75;7.40;;;9.30;99.90;;;;;;5058401;28;20060;-79
2024/01/30 10:39:08;;;;;;;16.10;7.65;;;9.20;99.90;;;;;;5056779;28;20044;-81
2024/01/30 10:41:44;;;;;;;19.02;8.23;;;9.20;99.90;;;;;;5062023;28;20115;-80
2024/01/30 10:44:10;;;;;;;16.45;6.20;;;9.20;99.90;;;;;;5059233;28;20029;-75
2024/01/30 10:46:39;;;;;;;11.27;4.47;;;9.20;99.90;;;;;;5056969;28;20067;-80
2024/01/30 10:49:06;;;;;;;9.40;3.50;;;9.10;99.90;;;;;;5063340;28;20048;-79
2024/01/30 10:51:34;;;;;;;10.50;4.22;;;9.10;99.90;;;;;;5060662;28;20049;-80
2024/01/30 10:54:00;;;;;;;9.90;2.35;;;9.20;99.90;;;;;;5068918;28;20051;-78
2024/01/30 10:56:27;;;;;;;16.02;4.75;;;9.20;99.90;;;;;;5071537;28;20083;-74
2024/01/30 10:58:54;;;;;;;6.85;2.75;;;9.10;99.90;;;;;;5079014;28;20049;-78
2024/01/30 11:01:24;;;;;;;9.98;3.05;;;9.20;99.90;;;;;;5063313;28;20051;-77
2024/01/30 11:03:53;;;;;;;7.32;2.47;;;9.20;99.90;;;;;;5065131;28;20036;-81
2024/01/30 11:06:23;;;;;;;12.95;2.92;;;9.10;99.90;;;;;;5061082;28;20601;-81
2024/01/30 11:09:03;;;;;;;9.93;4.40;;;9.10;99.90;;;;;;5066990;28;20048;-83
2024/01/30 11:11:28;;;;;;;11.77;5.68;;;9.10;99.90;;;;;;5066438;28;20075;-82
2024/01/30 11:13:54;;;;;;;7.35;3.13;;;9.10;99.90;;;;;;5068370;28;20036;-83
2024/01/30 11:16:20;;;;;;;6.25;2.33;;;9.10;99.90;;;;;;5066692;28;20040;-81
2024/01/30 11:18:51;;;;;;;7.57;2.88;;;9.10;99.90;;;;;;5060725;28;20992;-81
2024/01/30 11:21:17;;;;;;;6.68;2.58;;;9.10;99.90;;;;;;5065245;28;20123;-80
2024/01/30 11:23:43;;;;;;;10.25;3.35;;;9.10;99.90;;;;;;5060292;28;20599;-80
2024/01/30 11:26:10;;;;;;;8.23;3.13;;;9.10;99.90;;;;;;5069203;28;20041;-82
2024/01/30 11:28:38;;;;;;;12.02;4.95;;;9.10;99.90;;;;;;5069722;28;20033;-81
2024/01/30 11:31:05;;;;;;;11.60;4.75;;;9.10;99.90;;;;;;5064726;28;20123;-81
2024/01/30 11:33:31;;;;;;;11.88;4.72;;;9.10;99.90;;;;;;5064770;28;20052;-81
2024/01/30 11:36:00;;;;;;;8.75;4.35;;;9.10;99.90;;;;;;5062482;28;20044;-80
2024/01/30 11:38:29;;;;;;;11.68;4.13;;;9.10;99.90;;;;;;5059847;28;20487;-82
2024/01/30 11:40:56;;;;;;;8.85;3.97;;;9.10;99.90;;;;;;5066194;28;20074;-82
2024/01/30 11:43:22;;;;;;;11.77;3.97;;;9.00;99.90;;;;;;5063318;28;20048;-81
2024/01/30 11:45:48;;;;;;;13.23;3.83;;;9.00;99.90;;;;;;5064629;28;20044;-81
2024/01/30 11:48:14;;;;;;;9.18;3.42;;;8.90;99.90;;;;;;5062098;28;20037;-82
2024/01/30 11:50:46;;;;;;;8.43;2.97;;;9.00;99.90;;;;;;5066206;28;20120;-81
2024/01/30 11:53:12;;;;;;;15.88;3.53;;;8.90;99.90;;;;;;5068155;28;20044;-81
2024/01/30 11:55:38;;;;;;;9.48;3.00;;;8.90;99.90;;;;;;5070816;28;20040;-81
2024/01/30 11:58:04;;;;;;;6.85;2.80;;;8.90;99.90;;;;;;5066215;28;20090;-81
2024/01/30 12:00:33;;;;;;;7.15;2.25;;;8.90;99.90;;;;;;5060191;28;20136;-81
2024/01/30 12:03:00;;;;;;;10.63;2.90;;;8.90;99.90;;;;;;5059622;28;20049;-81
2024/01/30 12:05:26;;;;;;;9.88;3.13;;;9.00;99.90;;;;;;5066965;28;20049;-80
2024/01/30 12:07:53;;;;;;;7.10;2.90;;;9.00;99.90;;;;;;5068841;28;20044;-81
2024/01/30 12:10:19;;;;;;;8.02;3.45;;;9.10;99.90;;;;;;5069250;28;20621;-81
2024/01/30 12:12:49;;;;;;;8.73;2.63;;;9.10;99.90;;;;;;5063415;28;20090;-81
2024/01/30 12:15:16;;;;;;;13.63;2.63;;;9.10;99.90;;;;;;5065171;28;20079;-81
2024/01/30 12:17:41;;;;;;;13.98;3.28;;;9.10;99.90;;;;;;5062317;28;20049;-80
2024/01/30 12:20:09;;;;;;;8.02;2.60;;;9.10;99.90;;;;;;5068071;28;20131;-80
2024/01/30 12:22:42;;;;;;;11.55;2.92;;;9.00;99.90;;;;;;5064413;28;20068;-80
2024/01/30 12:25:09;;;;;;;8.32;2.70;;;9.00;99.90;;;;;;5081233;28;20041;-81
2024/01/30 12:27:36;;;;;;;11.90;3.00;;;9.00;99.90;;;;;;5070301;28;20044;-80
2024/01/30 12:30:09;;;;;;;13.65;4.30;;;9.00;99.90;;;;;;5066915;28;20037;-80
2024/01/30 12:32:43;;;;;;;8.80;2.88;;;9.00;99.90;;;;;;5063617;28;20052;-81
2024/01/30 12:35:14;;;;;;;8.48;3.00;;;8.90;99.90;;;;;;5067301;28;20528;-80